Ride Results

Zone 2 Championships (10-08-2008)
Ride distance: 110.0 km Elevator

Outcomes - Zone 2 Championships (10-08-2008)
Division No. of Entries Retired / DNE Completed Withdrawn Ineligible V/O Percentage Completed
HW 16 9 2 2 - 3 68.75%
MW 35 21 5 3 - 6 74.29%
LW 11 7 2 - - 2 81.82%
JN 3 1 1 1 - - 66.67%
Totals 65 38 10 6 - 11 73.85%
Results - Zone 2 Championships (10-08-2008)
No. Rider Horse Place Time Leg Speeds Total
Km/Hr
H/R bpm
Heavyweight
24 John Dawson Jon De Le Jalise 1 (BC) 7:12:00 17.2, 15.6, 13.0 15.28 35, 42, 40, 46 (Avg:42)
11 Paddy Smith Jamaal 2 7:14:00 19.8, 17.3, 10.4 15.21 35, 46, 50, 43 (Avg:46)
23 Steve Brisbane Marjon Retired/DNE L2 4:39:00 17.7, 16.7 17.20 32, 33, 35 (Avg:34)
15 Bern Harvey Velona Phoenix Retired/DNE L2 4:52:00 17.2, 15.8 16.44 40, 42, 48 (Avg:45)
26 Rod Mitchell Aloha Naja Retired/DNE L2 5:39:00 15.1, 13.5 14.16 37, 35, 42 (Avg:38)
53 Virginia Blain Suncrest Silver Echo Retired/DNE L2 5:54:00 14.8, 12.6 13.56 38, 44, 46 (Avg:45)
31 Jason Duff Kintamani Silver Magnum Retired/DNE L2 6:40:00 11.1, 12.7 12.00 40, 38, 44 (Avg:41)
6 Kelly Spice Bri-Jen Shhalim Retired/DNE L2 6:40:00 11.5, 12.3 12.00 41, 46, 44 (Avg:45)
9 Wendy Bushell Arabesque Arabella Retired/DNE L2 7:02:00 12.2, 10.7 11.37 35, 36, 44 (Avg:40)
55 Alan Mackinder Adios Retired/DNE L2 7:51:00 10.8, 9.7 10.19 38, 39, 44 (Avg:41)
50 Haydn Fisher Just Cruising Retired/DNE L2 7:52:00 10.8, 9.6 10.17 39, 40, 44 (Avg:42)
49 Nicole Dower Hazeldean Espahan Lame L2 0:00:00 10.7, 9.0 - 43, 48, 47 (Avg:47)
54 Raelene French Arasarta Narhalinian Withdrawn L2 0:00:00 - - 54, 48, 48 (Avg:48)
63 Stuart Hitchcock Diamond R Elmo Lame L2 0:00:00 10.3, 9.0 - 38, 46, 56 (Avg:51)
18 Len Derkacz Torryburn Rahal Lame L1 0:00:00 14.4 - 31, 44 (Avg:44)
59 Heather Nagle Erin Park Faline Withdrawn P/R 0:00:00 - - 44
Middleweight
20 Garry Bennett Karabil Yaningi 1 (BC) 5:36:00 19.4, 19.8, 19.5 19.64 30, 36, 37, 38 (Avg:37)
41 Emily Streckfuss Webbs Creek Starlight 1 5:36:00 19.9, 19.4, 19.5 19.64 31, 39, 43, 44 (Avg:42)
30 Neroli Mitchell- Cooper Bilbo 3 5:46:00 19.4, 19.8, 17.6 19.08 35, 42, 50, 51 (Avg:47)
33 Garry Weis Parkview Armageddon 4 7:18:00 16.2, 18.0, 11.3 15.07 39, 36, 44, 43 (Avg:41)
67 Kate Pilley Tuldar Regal Reggie 5 7:32:00 16.2, 14.9, 12.5 14.60 36, 50, 45 (Avg:43)
10 Catherine Chapman Tarkhim Shar Grey Fire Retired/DNE L2 4:04:00 11.4, 45.0 19.67 44, 36, 39 (Avg:37)
39 Jamie Mollema Littlebanks Tic Tac Toe Retired/DNE L2 4:22:00 17.7, 18.7 18.32 34, 41, 49 (Avg:45)
16 Sharna Harvey Velona Bartez Retired/DNE L2 4:52:00 17.2, 15.8 16.44 35, 46, 42 (Avg:44)
35 Carol Griffiths Alhambra Jazz Dancer Retired/DNE L2 4:54:00 17.7, 15.3 16.33 36, 42, 46 (Avg:44)
57 April Bonham Joda Shantilly Retired/DNE L2 5:09:00 15.1, 15.8 15.53 48, 45, 35 (Avg:40)
12 Sonia Bonham Box Hill Elnino Retired/DNE L2 5:20:00 16.0, 14.2 15.00 35, 46, 48 (Avg:47)
45 Mark Lindsay Kintamani Silver Motif Retired/DNE L2 5:39:00 16.0, 12.9 14.16 34, 38, 49 (Avg:43)
29 Duncan Satchell Alhambra Mirage Retired/DNE L2 5:39:00 16.0, 12.9 14.16 35, 41, 46 (Avg:43)
22 Lindsay Hine Harmere Kalila Retired/DNE L2 6:15:00 11.5, 13.9 12.80 55, 43, 49 (Avg:46)
61 Bernice King Noble Navaar Destiny Retired/DNE L2 6:35:00 15.1, 10.5 12.15 35, 36, 39 (Avg:37)
44 Brianna Webb Shakla's Sudden Impact Retired/DNE L2 6:42:00 11.4, 12.3 11.94 40, 46, 51 (Avg:48)
37 Katrina Bodewes Tallawarra Chance Retired/DNE L2 6:52:00 11.5, 11.7 11.65 41, 42, 48 (Avg:45)
66 Terry Wood Tallawarra Spy Retired/DNE L2 6:52:00 11.5, 11.7 11.65 54, 48, 58 (Avg:53)
43 Paul Keyes Raymar Yasmin (exp BH) Retired/DNE L2 6:59:00 10.4, 12.3 11.46 33, 37, 43 (Avg:40)
28 Shan Symons Raymar Aria (exp BH) Retired/DNE L2 6:59:00 11.1, 11.7 11.46 34, 40, 43 (Avg:41)
56 Naomi Djuric Ja-Rob Moon Shadow Retired/DNE L2 7:51:00 10.7, 9.8 10.19 48, 50, 54 (Avg:52)
4 Renee Kirk Garnee Ballistic Retired/DNE L2 7:51:00 10.8, 9.7 10.19 35, 47, 48 (Avg:47)
51 Gail Fisher Aylah Retired/DNE L2 7:52:00 10.8, 9.6 10.17 32, 39, 56 (Avg:47)
48 Tiffany Holmquist Silky Retired/DNE L2 7:53:00 10.7, 9.7 10.15 41, 47, 48 (Avg:47)
25 Lynn Coles Pinedene Robbie Retired/DNE L2 8:06:00 11.0, 9.1 9.88 33, 38, 40 (Avg:39)
64 Chris Noonan Littlebanks Xerox Retired/DNE L2 8:22:00 10.4, 8.9 9.56 41, 44, 43 (Avg:43)
47 Rochelle Knihinicki Kintamani Charisma Lame L2 0:00:00 15.4, 13.3 - 35, 40, 46 (Avg:43)
2 Marita Rifai Tuldar Slingshot Lame L2 0:00:00 19.8, 15.6 - 33, 40, 43 (Avg:41)
14 Patricia Waddell Box Hill Ralph Lame L2 0:00:00 16.0, 13.8 - 34, 48, 54 (Avg:51)
8 Melissa Attwell Yarranoo Armalite Withdrawn L1 0:00:00 - - 40, 40 (Avg:40)
5 Emma Fletcher Mahazin Khomet Lame L1 0:00:00 19.2 - 34, 40 (Avg:40)
34 Raymond Griffiths Ginger Megs Withdrawn L1 0:00:00 - - 39, 50 (Avg:50)
19 Brian Klatt Salam Zahbeel Withdrawn L1 0:00:00 - - 37, 44 (Avg:44)
40 Mette Sutton Tuldar The Magician Heart Rate L1 0:00:00 17.0 - 30, 60 (Avg:60)
13 Kristy Waddell Box Hill Glider Lame P/R 0:00:00 - - -
Lightweight
1 Gloria Mills Glendos Sabodie 1 (BC) 5:55:00 19.8, 19.5, 16.2 18.59 29, 36, 39, 42 (Avg:39)
38 Tara Brown Littlebanks Cruise Control 2 7:53:00 16.0, 12.9, 13.4 13.95 34, 42, 47, 45 (Avg:44)
27 Julie Brooks Aloha Byshara Retired/DNE L2 4:54:00 17.2, 15.6 16.33 37, 46, 48 (Avg:47)
52 Sonya Nicholls Cherox Coco Retired/DNE L2 5:54:00 14.8, 12.6 13.56 34, 42, 46 (Avg:44)
21 Jennifer McDonald Amarissa Retired/DNE L2 5:55:00 12.8, 14.0 13.52 37, 42, 50 (Avg:46)
17 Ava Pellizzari Razorback Blue Kakadu Retired/DNE L2 6:15:00 11.6, 13.8 12.80 43, 34, 41 (Avg:37)
32 Lee Duff Imparja Minkala Retired/DNE L2 6:40:00 11.1, 12.7 12.00 35, 36, 42 (Avg:39)
42 Emma Broome Teecee Exquisite Retired/DNE L2 7:51:00 10.8, 9.7 10.19 37, 38, 42 (Avg:40)
65 Mary Hollingsworth Henley Farm Khadd Retired/DNE L2 8:19:00 11.5, 8.5 9.62 34, 44, 48 (Avg:46)
7 Sonya Ardill Casamir Odessa Lame L1 0:00:00 9.1 - 36, 38 (Avg:38)
3 Dianne Luker Kintamani Silver Harmony Lame L1 0:00:00 19.2 - 28, 40 (Avg:40)
Junior
46 Emma Godber Kintamani Silver Belle 1 (BC) 7:53:00 15.4, 13.3, 13.4 13.95 35, 40, 43, 47 (Avg:43)
62 Leanna Maynard Coco Retired/DNE L2 6:41:00 11.4, 12.4 11.97 42, 46, 45 (Avg:45)
36 Mia Bodewes Tallawarra Jalibur Withdrawn L1 0:00:00 - - 36, 36 (Avg:36)